createdAt,value
2023-01-28T00:01:41.003Z,12.25
2023-01-28T00:04:07.616Z,11.50
2023-01-28T00:06:34.180Z,9.10
2023-01-28T00:09:00.844Z,12.98
2023-01-28T00:11:27.359Z,12.30
2023-01-28T00:13:54.595Z,13.35
2023-01-28T00:16:21.714Z,14.83
2023-01-28T00:18:48.728Z,11.43
2023-01-28T00:21:16.328Z,13.80
2023-01-28T00:23:47.621Z,11.77
2023-01-28T00:26:15.382Z,13.07
2023-01-28T00:28:44.412Z,13.32
2023-01-28T00:31:20.120Z,14.50
2023-01-28T00:33:48.373Z,11.65
2023-01-28T00:36:16.017Z,11.60
2023-01-28T00:38:43.002Z,10.32
2023-01-28T00:41:18.422Z,10.63
2023-01-28T00:43:44.935Z,9.90
2023-01-28T00:46:12.839Z,12.05
2023-01-28T00:48:40.996Z,11.25
2023-01-28T00:51:08.662Z,13.00
2023-01-28T00:53:36.210Z,12.73
2023-01-28T00:56:03.801Z,11.73
2023-01-28T00:58:32.813Z,13.27
2023-01-28T01:01:18.364Z,10.70
2023-01-28T01:03:45.582Z,13.90
2023-01-28T01:06:15.532Z,11.52
2023-01-28T01:08:42.142Z,11.35
2023-01-28T01:11:11.140Z,12.55
2023-01-28T01:13:38.524Z,11.30
2023-01-28T01:16:15.996Z,10.90
2023-01-28T01:18:43.003Z,10.77
2023-01-28T01:21:11.983Z,10.23
2023-01-28T01:23:39.098Z,11.35
2023-01-28T01:28:35.088Z,9.70
2023-01-28T01:31:04.206Z,9.95
2023-01-28T01:33:31.717Z,11.88
2023-01-28T01:35:58.883Z,10.60
2023-01-28T01:38:27.495Z,9.55
2023-01-28T01:40:58.404Z,11.57
2023-01-28T01:43:25.588Z,10.07
2023-01-28T01:46:00.561Z,12.43
2023-01-28T01:48:33.798Z,12.13
2023-01-28T01:51:13.012Z,10.65
2023-01-28T01:53:43.373Z,8.55
2023-01-28T01:56:14.125Z,9.82
2023-01-28T01:58:44.076Z,9.50
2023-01-28T02:01:11.703Z,10.60
2023-01-28T02:04:00.916Z,10.68
2023-01-28T02:06:28.837Z,9.45
2023-01-28T02:08:56.185Z,11.48
2023-01-28T02:11:27.128Z,9.18
2023-01-28T02:13:58.050Z,9.43
2023-01-28T02:16:27.950Z,10.82
2023-01-28T02:18:54.691Z,7.88
2023-01-28T02:21:52.954Z,10.93
2023-01-28T02:24:42.227Z,10.82
2023-01-28T02:27:20.622Z,10.65
2023-01-28T02:30:03.286Z,9.90
2023-01-28T02:32:35.358Z,10.23
2023-01-28T02:35:18.349Z,10.00
2023-01-28T02:37:49.693Z,10.23
2023-01-28T02:40:28.057Z,8.75
2023-01-28T02:42:59.096Z,10.50
2023-01-28T02:45:32.907Z,8.70
2023-01-28T02:47:59.610Z,9.25
2023-01-28T02:50:39.192Z,8.85
2023-01-28T02:53:28.559Z,9.38
2023-01-28T02:56:09.801Z,11.95
2023-01-28T02:58:37.258Z,11.15
2023-01-28T03:01:15.965Z,12.15
2023-01-28T03:04:03.933Z,13.30
2023-01-28T03:06:36.529Z,10.82
2023-01-28T03:09:07.511Z,11.18
2023-01-28T03:11:39.014Z,10.48
2023-01-28T03:14:09.736Z,9.10
2023-01-28T03:16:36.434Z,9.88
2023-01-28T03:19:03.051Z,8.50
2023-01-28T03:21:36.915Z,9.73
2023-01-28T03:24:24.551Z,8.70
2023-01-28T03:27:02.303Z,8.57
2023-01-28T03:29:31.881Z,12.90
2023-01-28T03:32:01.388Z,11.60
2023-01-28T03:34:28.407Z,9.15
2023-01-28T03:36:56.577Z,12.82
2023-01-28T03:39:31.746Z,13.40
2023-01-28T03:42:13.305Z,12.93
2023-01-28T03:44:50.581Z,8.52
2023-01-28T03:47:18.968Z,10.35
2023-01-28T03:49:48.010Z,9.07
2023-01-28T03:52:23.495Z,9.52
2023-01-28T03:54:50.265Z,9.85
2023-01-28T03:57:18.472Z,8.95
2023-01-28T03:59:45.163Z,9.80
2023-01-28T04:02:12.892Z,8.75
2023-01-28T04:04:40.304Z,8.25
2023-01-28T04:07:08.993Z,9.32
2023-01-28T04:10:01.675Z,9.20
2023-01-28T04:12:45.474Z,8.52
2023-01-28T04:15:15.225Z,9.32
2023-01-28T04:17:47.701Z,10.65
2023-01-28T04:20:21.072Z,10.07
2023-01-28T04:22:47.997Z,10.13
2023-01-28T04:25:16.233Z,12.40
2023-01-28T04:27:43.673Z,10.55
2023-01-28T04:30:16.777Z,9.63
2023-01-28T04:32:49.923Z,8.88
2023-01-28T04:35:34.993Z,9.73
2023-01-28T04:38:24.685Z,9.10
2023-01-28T04:41:01.755Z,10.80
2023-01-28T04:43:31.959Z,11.18
2023-01-28T04:46:18.625Z,8.38
2023-01-28T04:48:55.330Z,9.70
2023-01-28T04:51:51.440Z,8.57
2023-01-28T04:54:28.706Z,12.30
2023-01-28T04:56:58.767Z,12.25
2023-01-28T04:59:26.452Z,9.13
2023-01-28T05:01:53.087Z,10.43
2023-01-28T05:04:20.755Z,13.60
2023-01-28T05:06:47.399Z,11.82
2023-01-28T05:09:16.919Z,10.55
2023-01-28T05:11:44.034Z,14.67
2023-01-28T05:14:10.710Z,14.75
2023-01-28T05:16:44.533Z,9.70
2023-01-28T05:19:11.788Z,13.75
2023-01-28T05:21:41.232Z,10.10
2023-01-28T05:24:42.997Z,11.35
2023-01-28T05:27:10.160Z,10.60
2023-01-28T05:29:36.835Z,9.73
2023-01-28T05:32:03.791Z,12.43
2023-01-28T05:37:01.163Z,13.43
2023-01-28T05:39:32.593Z,12.27
2023-01-28T05:41:59.536Z,9.50
2023-01-28T05:44:26.295Z,9.38
2023-01-28T05:46:59.063Z,12.15
2023-01-28T05:49:49.669Z,10.00
2023-01-28T05:52:34.423Z,10.43
2023-01-28T05:55:01.427Z,10.95
2023-01-28T05:57:28.145Z,9.60
2023-01-28T05:59:54.851Z,9.02
2023-01-28T06:02:21.765Z,10.63
2023-01-28T06:04:50.768Z,10.73
2023-01-28T06:07:17.456Z,13.77
2023-01-28T06:09:43.991Z,12.20
2023-01-28T06:12:10.768Z,13.48
2023-01-28T06:14:50.872Z,10.65
2023-01-28T06:17:35.287Z,10.80
2023-01-28T06:20:08.055Z,9.60
2023-01-28T06:22:36.819Z,9.52
2023-01-28T06:25:03.601Z,12.18
2023-01-28T06:27:32.372Z,9.65
2023-01-28T06:29:58.914Z,10.80
2023-01-28T06:32:25.445Z,10.80
2023-01-28T06:34:51.978Z,11.32
2023-01-28T06:37:18.532Z,12.10
2023-01-28T06:39:47.963Z,11.38
2023-01-28T06:42:14.557Z,12.63
2023-01-28T06:44:41.801Z,10.35
2023-01-28T06:47:08.311Z,9.70
2023-01-28T06:49:34.808Z,10.07
2023-01-28T06:52:01.435Z,8.40
2023-01-28T06:54:27.896Z,10.07
2023-01-28T06:56:54.645Z,10.00
2023-01-28T06:59:21.566Z,9.18
2023-01-28T07:01:48.116Z,11.07
2023-01-28T07:04:14.689Z,10.80
2023-01-28T07:06:41.165Z,10.60
2023-01-28T07:09:07.826Z,9.48
2023-01-28T07:11:34.469Z,11.88
2023-01-28T07:14:01.148Z,11.18
2023-01-28T07:16:27.677Z,12.65
2023-01-28T07:18:54.370Z,9.65
2023-01-28T07:21:20.866Z,9.35
2023-01-28T07:23:47.357Z,11.38
2023-01-28T07:26:14.344Z,9.15
2023-01-28T07:28:41.065Z,9.52
2023-01-28T07:31:07.639Z,11.98
2023-01-28T07:33:34.327Z,10.05
2023-01-28T07:36:00.886Z,10.05
2023-01-28T07:38:27.444Z,10.38
2023-01-28T07:40:53.938Z,10.20
2023-01-28T07:43:20.448Z,11.27
2023-01-28T07:45:49.476Z,13.95
2023-01-28T07:48:16.110Z,13.57
2023-01-28T07:50:42.729Z,10.63
2023-01-28T07:53:11.659Z,9.88
2023-01-28T07:55:38.993Z,11.43
2023-01-28T07:58:07.493Z,10.77
2023-01-28T08:00:36.495Z,8.95
2023-01-28T08:03:07.210Z,9.48
2023-01-28T08:05:44.281Z,11.20
2023-01-28T08:08:11.556Z,12.68
2023-01-28T08:10:38.765Z,13.07
2023-01-28T08:13:06.297Z,10.27
2023-01-28T08:15:35.086Z,11.20
2023-01-28T08:18:01.918Z,10.80
2023-01-28T08:20:31.604Z,9.55
2023-01-28T08:23:12.744Z,10.93
2023-01-28T08:25:40.127Z,11.45
2023-01-28T08:28:07.763Z,11.18
2023-01-28T08:30:34.691Z,8.68
2023-01-28T08:33:01.557Z,8.98
2023-01-28T08:35:28.896Z,12.00
2023-01-28T08:37:56.856Z,11.20
2023-01-28T08:40:23.417Z,11.40
2023-01-28T08:42:51.662Z,11.20
2023-01-28T08:45:19.510Z,13.45
2023-01-28T08:47:55.980Z,9.13
2023-01-28T08:50:24.250Z,9.88
2023-01-28T08:52:59.939Z,9.02
2023-01-28T08:55:28.332Z,9.52
2023-01-28T08:57:57.430Z,11.32
2023-01-28T09:00:25.375Z,10.98
2023-01-28T09:02:53.010Z,8.57
2023-01-28T09:05:20.538Z,9.73
2023-01-28T09:07:47.455Z,10.32
2023-01-28T09:10:14.447Z,10.70
2023-01-28T09:12:41.314Z,9.63
2023-01-28T09:15:08.811Z,9.85
2023-01-28T09:17:35.313Z,11.20
2023-01-28T09:20:01.855Z,14.57
2023-01-28T09:22:28.335Z,23.52
2023-01-28T09:24:54.932Z,14.82
2023-01-28T09:27:21.447Z,12.55
2023-01-28T09:29:48.002Z,12.63
2023-01-28T09:32:14.532Z,9.70
2023-01-28T09:34:41.062Z,9.90
2023-01-28T09:37:07.648Z,9.27
2023-01-28T09:39:34.228Z,10.55
2023-01-28T09:42:03.674Z,12.57
2023-01-28T09:44:52.743Z,11.73
2023-01-28T09:47:33.935Z,10.35
2023-01-28T09:50:05.962Z,9.75
2023-01-28T09:52:36.200Z,10.50
2023-01-28T09:55:17.544Z,9.10
2023-01-28T09:57:50.571Z,9.02
2023-01-28T10:00:23.396Z,8.70
2023-01-28T10:03:33.675Z,8.55
2023-01-28T10:06:17.834Z,8.13
2023-01-28T10:09:15.897Z,9.30
2023-01-28T10:12:09.933Z,9.88
2023-01-28T10:14:54.551Z,9.98
2023-01-28T10:17:32.391Z,8.38
2023-01-28T10:20:05.572Z,10.80
2023-01-28T10:22:43.225Z,10.93
2023-01-28T10:25:20.492Z,11.10
2023-01-28T10:27:48.565Z,9.98
2023-01-28T10:30:31.067Z,8.68
2023-01-28T10:33:04.250Z,8.30
2023-01-28T10:35:42.978Z,9.80
2023-01-28T10:38:20.198Z,14.60
2023-01-28T10:40:47.168Z,13.05
2023-01-28T10:43:25.883Z,10.55
2023-01-28T10:46:15.813Z,9.98
2023-01-28T10:49:02.448Z,12.63
2023-01-28T10:51:37.136Z,10.98
2023-01-28T10:54:17.919Z,11.63
2023-01-28T10:56:44.902Z,12.70
2023-01-28T10:59:27.911Z,14.43
2023-01-28T11:02:01.190Z,13.05
2023-01-28T11:04:33.952Z,15.30
2023-01-28T11:07:03.830Z,14.00
2023-01-28T11:09:33.236Z,17.27
2023-01-28T11:12:24.703Z,14.27
2023-01-28T11:14:56.815Z,16.42
2023-01-28T11:17:26.450Z,13.25
2023-01-28T11:19:55.047Z,13.20
2023-01-28T11:22:45.200Z,15.85
2023-01-28T11:25:33.790Z,14.68
2023-01-28T11:28:03.553Z,13.70
2023-01-28T11:30:34.346Z,16.08
2023-01-28T11:33:15.191Z,12.00
2023-01-28T11:35:41.787Z,14.63
2023-01-28T11:38:19.444Z,12.32
2023-01-28T11:40:54.112Z,11.27
2023-01-28T11:43:23.230Z,11.93
2023-01-28T11:46:08.907Z,11.75
2023-01-28T11:49:10.928Z,11.38
2023-01-28T11:51:53.507Z,12.02
2023-01-28T11:54:37.602Z,10.77
2023-01-28T11:57:20.366Z,9.95
2023-01-28T12:00:12.350Z,11.63
2023-01-28T12:02:51.825Z,10.23
2023-01-28T12:05:46.220Z,8.20
2023-01-28T12:08:29.376Z,14.25
2023-01-28T12:11:13.557Z,12.60
2023-01-28T12:14:05.476Z,12.25
2023-01-28T12:17:02.275Z,17.02
2023-01-28T12:19:54.698Z,10.93
2023-01-28T12:22:41.744Z,8.13
2023-01-28T12:25:24.282Z,10.38
2023-01-28T12:27:52.621Z,9.80
2023-01-28T12:30:33.551Z,8.75
2023-01-28T12:33:45.035Z,9.25
2023-01-28T12:36:40.887Z,12.38
2023-01-28T12:39:35.784Z,9.23
2023-01-28T12:42:22.397Z,9.10
2023-01-28T12:44:57.261Z,9.38
2023-01-28T12:47:29.348Z,9.93
2023-01-28T12:50:21.530Z,10.82
2023-01-28T12:52:57.258Z,8.77
2023-01-28T12:55:38.593Z,10.25
2023-01-28T12:58:12.462Z,7.35
2023-01-28T13:00:48.419Z,9.02
2023-01-28T13:03:23.210Z,10.45
2023-01-28T13:05:59.741Z,9.45
2023-01-28T13:08:28.630Z,10.68
2023-01-28T13:10:57.686Z,8.13
2023-01-28T13:13:34.487Z,7.15
2023-01-28T13:16:02.608Z,8.20
2023-01-28T13:21:12.512Z,8.70
2023-01-28T13:23:38.968Z,10.00
2023-01-28T13:26:23.704Z,8.73
2023-01-28T13:28:53.203Z,8.57
2023-01-28T13:31:22.964Z,7.40
2023-01-28T13:33:55.436Z,8.77
2023-01-28T13:36:35.135Z,9.27
2023-01-28T13:39:05.027Z,8.88
2023-01-28T13:41:45.436Z,10.48
2023-01-28T13:44:27.259Z,9.07
2023-01-28T13:47:00.312Z,9.55
2023-01-28T13:49:40.964Z,11.60
2023-01-28T13:52:10.207Z,12.43
2023-01-28T13:54:40.826Z,10.80
2023-01-28T13:57:40.204Z,8.52
2023-01-28T14:00:20.873Z,7.82
2023-01-28T14:03:22.189Z,8.73
2023-01-28T14:06:10.127Z,10.45
2023-01-28T14:08:39.460Z,10.25
2023-01-28T14:11:25.045Z,9.07
2023-01-28T14:14:09.872Z,8.75
2023-01-28T14:16:42.592Z,8.23
2023-01-28T14:21:40.812Z,8.65
2023-01-28T14:24:15.855Z,8.63
2023-01-28T14:27:09.231Z,9.55
2023-01-28T14:30:14.136Z,8.63
2023-01-28T14:32:47.265Z,8.07
2023-01-28T14:35:19.775Z,7.85
2023-01-28T14:37:46.746Z,8.15
2023-01-28T14:40:16.366Z,9.00
2023-01-28T14:42:50.493Z,7.95
2023-01-28T14:45:35.523Z,8.60
2023-01-28T14:48:26.372Z,7.03
2023-01-28T14:51:07.167Z,8.68
2023-01-28T14:54:00.735Z,8.60
2023-01-28T14:57:15.158Z,9.52
2023-01-28T14:59:54.807Z,10.15
2023-01-28T15:02:26.526Z,9.82
2023-01-28T15:04:53.772Z,7.82
2023-01-28T15:07:25.314Z,7.87
2023-01-28T15:10:07.369Z,7.32
2023-01-28T15:12:41.042Z,10.80
2023-01-28T15:15:18.164Z,9.32
2023-01-28T15:17:47.463Z,9.30
2023-01-28T15:20:20.633Z,9.40
2023-01-28T15:22:47.344Z,8.45
2023-01-28T15:25:22.811Z,7.97
2023-01-28T15:27:51.471Z,7.35
2023-01-28T15:30:23.224Z,9.20
2023-01-28T15:33:20.927Z,7.03
2023-01-28T15:38:14.640Z,7.72
2023-01-28T15:40:43.389Z,7.60
2023-01-28T15:43:20.484Z,6.88
2023-01-28T15:45:48.675Z,9.83
2023-01-28T15:50:44.279Z,9.40
2023-01-28T15:53:13.001Z,7.90
2023-01-28T15:55:44.455Z,8.30
2023-01-28T15:58:20.076Z,8.02
2023-01-28T16:00:48.512Z,7.90
2023-01-28T16:03:20.606Z,6.65
2023-01-28T16:06:21.309Z,7.55
2023-01-28T16:08:58.147Z,10.18
2023-01-28T16:11:28.575Z,13.65
2023-01-28T16:13:55.826Z,13.60
2023-01-28T16:16:27.703Z,11.13
2023-01-28T16:18:54.832Z,9.70
2023-01-28T16:21:30.162Z,8.70
2023-01-28T16:24:06.090Z,8.25
2023-01-28T16:26:35.213Z,8.50
2023-01-28T16:29:14.716Z,6.72
2023-01-28T16:31:41.426Z,6.97
2023-01-28T16:34:10.908Z,7.70
2023-01-28T16:36:37.589Z,7.80
2023-01-28T16:39:04.434Z,7.65
2023-01-28T16:41:35.216Z,7.10
2023-01-28T16:44:01.809Z,7.10
2023-01-28T16:46:28.420Z,7.60
2023-01-28T16:48:54.996Z,7.90
2023-01-28T16:51:21.597Z,7.53
2023-01-28T16:53:49.816Z,8.05
2023-01-28T16:56:30.432Z,8.48
2023-01-28T16:59:05.158Z,8.98
2023-01-28T17:01:31.701Z,9.73
2023-01-28T17:03:58.264Z,11.93
2023-01-28T17:06:25.024Z,11.57
2023-01-28T17:08:51.554Z,8.40
2023-01-28T17:11:18.114Z,9.40
2023-01-28T17:13:44.850Z,9.00
2023-01-28T17:16:11.444Z,7.60
2023-01-28T17:18:38.202Z,7.45
2023-01-28T17:21:05.802Z,6.50
2023-01-28T17:23:33.072Z,7.50
2023-01-28T17:26:07.869Z,7.70
2023-01-28T17:28:35.389Z,7.07
2023-01-28T17:31:13.107Z,8.38
2023-01-28T17:33:40.791Z,10.73
2023-01-28T17:36:07.787Z,9.32
2023-01-28T17:38:34.378Z,10.27
2023-01-28T17:41:09.115Z,10.75
2023-01-28T17:43:35.634Z,9.55
2023-01-28T17:46:11.026Z,8.75
2023-01-28T17:48:37.737Z,7.13
2023-01-28T17:51:04.421Z,8.45
2023-01-28T17:53:31.045Z,7.63
2023-01-28T17:55:57.887Z,9.02
2023-01-28T17:58:24.384Z,7.25
2023-01-28T18:00:50.896Z,6.45
2023-01-28T18:03:17.576Z,9.18
2023-01-28T18:05:44.150Z,7.97
2023-01-28T18:08:10.689Z,7.97
2023-01-28T18:10:37.157Z,8.60
2023-01-28T18:13:03.842Z,9.00
2023-01-28T18:15:30.383Z,9.55
2023-01-28T18:17:56.886Z,8.93
2023-01-28T18:20:23.600Z,8.60
2023-01-28T18:22:50.143Z,9.43
2023-01-28T18:25:18.716Z,6.40
2023-01-28T18:27:45.931Z,8.40
2023-01-28T18:30:12.586Z,9.48
2023-01-28T18:32:39.069Z,9.50
2023-01-28T18:35:06.121Z,7.82
2023-01-28T18:37:32.815Z,8.77
2023-01-28T18:39:59.381Z,9.35
2023-01-28T18:42:25.894Z,8.70
2023-01-28T18:44:52.474Z,8.02
2023-01-28T18:47:19.126Z,12.38
2023-01-28T18:49:45.767Z,12.23
2023-01-28T18:52:12.268Z,11.15
2023-01-28T18:54:38.817Z,9.32
2023-01-28T18:57:05.651Z,10.77
2023-01-28T18:59:32.179Z,10.15
2023-01-28T19:01:58.820Z,9.50
2023-01-28T19:04:25.696Z,9.15
2023-01-28T19:06:55.912Z,10.05
2023-01-28T19:09:22.476Z,9.80
2023-01-28T19:11:49.165Z,8.40
2023-01-28T19:14:16.514Z,9.15
2023-01-28T19:16:43.843Z,9.52
2023-01-28T19:19:10.488Z,8.35
2023-01-28T19:21:36.967Z,8.60
2023-01-28T19:24:06.358Z,8.50
2023-01-28T19:26:33.373Z,9.73
2023-01-28T19:28:59.860Z,9.27
2023-01-28T19:31:27.187Z,9.35
2023-01-28T19:34:01.478Z,8.37
2023-01-28T19:36:30.281Z,9.73
2023-01-28T19:38:58.141Z,10.80
2023-01-28T19:41:24.926Z,10.23
2023-01-28T19:43:51.460Z,9.65
2023-01-28T19:46:18.177Z,9.20
2023-01-28T19:48:45.144Z,8.95
2023-01-28T19:51:13.710Z,8.88
2023-01-28T19:53:41.386Z,9.57
2023-01-28T19:56:12.118Z,9.40
2023-01-28T19:58:41.847Z,9.30
2023-01-28T20:01:16.735Z,9.35
2023-01-28T20:03:44.648Z,8.57
2023-01-28T20:06:14.103Z,9.90
2023-01-28T20:08:40.599Z,11.05
2023-01-28T20:11:14.913Z,8.30
2023-01-28T20:13:43.727Z,10.45
2023-01-28T20:16:16.503Z,9.68
2023-01-28T20:18:43.372Z,10.70
2023-01-28T20:21:09.954Z,9.38
2023-01-28T20:23:36.529Z,8.60
2023-01-28T20:26:03.110Z,8.23
2023-01-28T20:28:30.204Z,9.77
2023-01-28T20:30:57.132Z,9.43
2023-01-28T20:33:24.313Z,8.38
2023-01-28T20:35:50.979Z,8.30
2023-01-28T20:38:17.465Z,7.82
2023-01-28T20:40:44.012Z,8.27
2023-01-28T20:43:10.651Z,8.57
2023-01-28T20:45:37.334Z,9.30
2023-01-28T20:48:03.975Z,9.30
2023-01-28T20:50:30.525Z,8.15
2023-01-28T20:52:57.034Z,9.63
2023-01-28T20:55:23.608Z,7.68
2023-01-28T20:57:52.223Z,8.82
2023-01-28T21:00:19.688Z,8.00
2023-01-28T21:02:46.798Z,9.38
2023-01-28T21:05:13.753Z,9.57
2023-01-28T21:07:40.790Z,9.43
2023-01-28T21:10:08.268Z,8.75
2023-01-28T21:12:35.009Z,8.82
2023-01-28T21:15:01.634Z,8.65
2023-01-28T21:17:28.168Z,10.00
2023-01-28T21:19:54.965Z,8.23
2023-01-28T21:22:21.559Z,8.55
2023-01-28T21:24:48.272Z,7.35
2023-01-28T21:27:15.003Z,9.88
2023-01-28T21:29:41.639Z,8.43
2023-01-28T21:32:08.190Z,10.30
2023-01-28T21:34:34.741Z,9.00
2023-01-28T21:37:01.312Z,9.30
2023-01-28T21:39:27.835Z,8.98
2023-01-28T21:41:54.578Z,10.07
2023-01-28T21:44:21.455Z,10.23
2023-01-28T21:46:48.203Z,8.88
2023-01-28T21:49:14.863Z,8.93
2023-01-28T21:51:41.787Z,11.07
2023-01-28T21:54:13.559Z,11.52
2023-01-28T21:56:42.326Z,11.55
2023-01-28T21:59:10.163Z,11.05
2023-01-28T22:01:36.744Z,11.25
2023-01-28T22:04:03.865Z,10.68
2023-01-28T22:06:30.540Z,10.02
2023-01-28T22:08:57.101Z,10.10
2023-01-28T22:11:23.854Z,9.80
2023-01-28T22:13:50.310Z,9.18
2023-01-28T22:16:17.261Z,9.32
2023-01-28T22:18:43.905Z,9.52
2023-01-28T22:21:11.732Z,10.32
2023-01-28T22:23:38.609Z,9.15
2023-01-28T22:26:05.378Z,8.98
2023-01-28T22:28:32.031Z,10.35
2023-01-28T22:31:07.032Z,8.93
2023-01-28T22:33:33.879Z,10.50
2023-01-28T22:36:00.626Z,9.77
2023-01-28T22:38:27.398Z,11.45
2023-01-28T22:40:53.864Z,9.18
2023-01-28T22:43:20.468Z,8.40
2023-01-28T22:45:46.946Z,9.32
2023-01-28T22:48:13.473Z,9.43
2023-01-28T22:50:39.925Z,11.23
2023-01-28T22:53:06.378Z,11.07
2023-01-28T22:55:33.273Z,12.27
2023-01-28T22:58:02.356Z,9.38
2023-01-28T23:00:28.821Z,8.35
2023-01-28T23:02:55.339Z,10.43
2023-01-28T23:05:21.902Z,9.25
2023-01-28T23:07:48.506Z,9.23
2023-01-28T23:10:15.797Z,7.28
2023-01-28T23:12:42.429Z,8.97
2023-01-28T23:15:10.135Z,9.55
2023-01-28T23:17:36.634Z,10.13
2023-01-28T23:20:03.836Z,9.55
2023-01-28T23:22:32.514Z,10.43
2023-01-28T23:24:59.051Z,9.23
2023-01-28T23:27:26.052Z,10.82
2023-01-28T23:29:52.652Z,8.93
2023-01-28T23:32:20.832Z,9.90
2023-01-28T23:34:47.316Z,11.27
2023-01-28T23:37:13.991Z,10.05
2023-01-28T23:39:41.179Z,8.73
2023-01-28T23:42:16.438Z,8.87
2023-01-28T23:44:43.383Z,9.93
2023-01-28T23:47:10.117Z,11.00
2023-01-28T23:49:37.000Z,9.45
2023-01-28T23:52:04.865Z,9.60
2023-01-28T23:54:31.923Z,10.35
2023-01-28T23:56:59.019Z,11.68
2023-01-28T23:59:25.661Z,8.80
